createdAt,value
2023-12-18T00:01:18.611Z,5.13
2023-12-18T00:03:50.163Z,5.20
2023-12-18T00:08:49.725Z,5.40
2023-12-18T00:11:21.696Z,5.10
2023-12-18T00:13:52.255Z,5.12
2023-12-18T00:16:22.437Z,4.67
2023-12-18T00:18:52.674Z,4.08
2023-12-18T00:21:22.960Z,5.12
2023-12-18T00:23:53.256Z,4.10
2023-12-18T00:26:24.455Z,3.95
2023-12-18T00:28:54.896Z,4.42
2023-12-18T00:31:25.353Z,4.08
2023-12-18T00:33:56.927Z,4.03
2023-12-18T00:36:26.962Z,4.17
2023-12-18T00:38:57.175Z,5.05
2023-12-18T00:41:27.562Z,5.05
2023-12-18T00:43:57.753Z,4.25
2023-12-18T00:46:28.157Z,4.00
2023-12-18T00:48:58.481Z,4.47
2023-12-18T00:51:28.748Z,3.47
2023-12-18T00:53:59.070Z,3.70
2023-12-18T00:56:31.010Z,4.20
2023-12-18T00:59:02.194Z,4.80
2023-12-18T01:01:33.025Z,3.27
2023-12-18T01:04:04.152Z,3.72
2023-12-18T01:06:36.957Z,3.72
2023-12-18T01:09:07.081Z,3.33
2023-12-18T01:11:37.636Z,3.92
2023-12-18T01:14:10.827Z,2.55
2023-12-18T01:16:41.076Z,4.22
2023-12-18T01:19:13.898Z,3.37
2023-12-18T01:21:49.065Z,4.05
2023-12-18T01:24:20.484Z,3.62
2023-12-18T01:26:50.690Z,3.40
2023-12-18T01:29:20.918Z,2.92
2023-12-18T01:31:51.186Z,3.50
2023-12-18T01:34:21.498Z,3.65
2023-12-18T01:36:51.813Z,3.35
2023-12-18T01:39:22.033Z,3.50
2023-12-18T01:41:52.214Z,3.05
2023-12-18T01:44:22.656Z,2.80
2023-12-18T01:46:53.364Z,3.10
2023-12-18T01:49:24.554Z,2.15
2023-12-18T01:51:54.805Z,3.45
2023-12-18T01:54:25.587Z,3.12
2023-12-18T01:56:58.070Z,3.10
2023-12-18T01:59:28.527Z,3.02
2023-12-18T02:01:58.817Z,2.75
2023-12-18T02:04:29.262Z,2.65
2023-12-18T02:07:03.245Z,5.58
2023-12-18T02:09:34.639Z,2.70
2023-12-18T02:12:06.083Z,2.52
2023-12-18T02:14:35.923Z,2.85
2023-12-18T02:17:06.346Z,2.20
2023-12-18T02:19:37.602Z,3.62
2023-12-18T02:22:07.599Z,3.25
2023-12-18T02:24:37.811Z,2.33
2023-12-18T02:27:08.265Z,2.33
2023-12-18T02:29:38.501Z,2.25
2023-12-18T02:32:09.905Z,2.47
2023-12-18T02:34:40.857Z,2.00
2023-12-18T02:37:12.144Z,2.42
2023-12-18T02:39:42.048Z,2.72
2023-12-18T02:42:12.518Z,1.85
2023-12-18T02:44:42.930Z,1.87
2023-12-18T02:47:13.121Z,2.83
2023-12-18T02:49:44.463Z,1.82
2023-12-18T02:52:16.611Z,2.42
2023-12-18T02:54:46.839Z,1.67
2023-12-18T02:57:17.309Z,2.22
2023-12-18T02:59:49.376Z,1.50
2023-12-18T03:02:19.550Z,2.02
2023-12-18T03:04:49.757Z,3.22
2023-12-18T03:07:22.311Z,1.55
2023-12-18T03:09:52.631Z,1.70
2023-12-18T03:12:23.614Z,2.05
2023-12-18T03:14:54.829Z,1.50
2023-12-18T03:17:25.215Z,1.42
2023-12-18T03:19:55.582Z,1.65
2023-12-18T03:22:25.786Z,1.98
2023-12-18T03:24:56.083Z,1.70
2023-12-18T03:27:28.061Z,2.02
2023-12-18T03:29:59.326Z,1.55
2023-12-18T03:32:29.452Z,1.57
2023-12-18T03:34:59.666Z,1.52
2023-12-18T03:37:29.819Z,2.00
2023-12-18T03:40:00.344Z,2.00
2023-12-18T03:42:30.684Z,2.08
2023-12-18T03:45:01.869Z,1.45
2023-12-18T03:47:31.807Z,1.92
2023-12-18T03:50:02.107Z,2.95
2023-12-18T03:52:32.317Z,1.95
2023-12-18T03:55:04.063Z,2.33
2023-12-18T03:57:36.198Z,2.70
2023-12-18T04:00:07.673Z,1.95
2023-12-18T04:02:39.505Z,2.10
2023-12-18T04:05:10.298Z,2.87
2023-12-18T04:07:41.703Z,1.63
2023-12-18T04:10:12.337Z,2.12
2023-12-18T04:12:42.575Z,2.20
2023-12-18T04:15:13.110Z,2.58
2023-12-18T04:17:43.673Z,2.50
2023-12-18T04:20:14.275Z,2.25
2023-12-18T04:25:15.701Z,2.62
2023-12-18T04:27:46.040Z,3.27
2023-12-18T04:30:16.664Z,3.02
2023-12-18T04:32:47.927Z,3.08
2023-12-18T04:35:17.827Z,2.15
2023-12-18T04:37:48.102Z,2.67
2023-12-18T04:40:18.304Z,3.55
2023-12-18T04:42:48.545Z,3.50
2023-12-18T04:45:19.068Z,3.53
2023-12-18T04:47:50.226Z,3.08
2023-12-18T04:50:20.510Z,3.98
2023-12-18T04:52:50.699Z,3.05
2023-12-18T04:55:20.871Z,4.00
2023-12-18T04:57:51.255Z,4.12
2023-12-18T05:00:21.809Z,3.40
2023-12-18T05:02:53.056Z,4.37
2023-12-18T05:05:23.058Z,3.42
2023-12-18T05:07:53.368Z,3.80
2023-12-18T05:10:24.797Z,3.95
2023-12-18T05:12:58.354Z,4.62
2023-12-18T05:15:31.992Z,4.12
2023-12-18T05:18:03.589Z,4.10
2023-12-18T05:20:35.599Z,4.35
2023-12-18T05:23:05.718Z,5.12
2023-12-18T05:25:35.905Z,4.08
2023-12-18T05:28:06.325Z,4.10
2023-12-18T05:30:37.840Z,4.28
2023-12-18T05:33:07.660Z,5.47
2023-12-18T05:35:38.095Z,5.58
2023-12-18T05:38:08.836Z,5.22
2023-12-18T05:40:41.884Z,5.45
2023-12-18T05:43:12.615Z,5.75
2023-12-18T05:45:42.844Z,5.95
2023-12-18T05:48:13.427Z,5.80
2023-12-18T05:50:43.758Z,4.92
2023-12-18T05:53:14.018Z,5.25
2023-12-18T05:55:44.243Z,6.83
2023-12-18T05:58:15.568Z,6.35
2023-12-18T06:00:45.502Z,5.55
2023-12-18T06:03:15.725Z,5.62
2023-12-18T06:05:47.501Z,4.75
2023-12-18T06:08:19.582Z,5.35
2023-12-18T06:10:50.736Z,6.92
2023-12-18T06:13:20.607Z,5.90
2023-12-18T06:15:50.860Z,6.20
2023-12-18T06:18:21.317Z,5.67
2023-12-18T06:20:51.581Z,5.92
2023-12-18T06:23:21.726Z,6.95
2023-12-18T06:25:51.976Z,4.67
2023-12-18T06:28:22.159Z,4.58
2023-12-18T06:30:52.379Z,5.62
2023-12-18T06:33:22.936Z,4.80
2023-12-18T06:35:53.238Z,5.83
2023-12-18T06:38:24.417Z,5.72
2023-12-18T06:40:56.351Z,4.85
2023-12-18T06:43:26.634Z,4.67
2023-12-18T06:45:56.868Z,4.33
2023-12-18T06:48:27.974Z,4.15
2023-12-18T06:50:57.916Z,4.60
2023-12-18T06:53:28.229Z,4.97
2023-12-18T06:55:58.433Z,5.12
2023-12-18T06:58:28.788Z,4.05
2023-12-18T07:00:59.294Z,4.62
2023-12-18T07:03:32.475Z,4.65
2023-12-18T07:08:30.820Z,3.87
2023-12-18T07:11:01.360Z,5.58
2023-12-18T07:13:31.512Z,5.53
2023-12-18T07:16:01.835Z,5.60
2023-12-18T07:18:32.198Z,4.95
2023-12-18T07:21:02.525Z,4.53
2023-12-18T07:23:32.689Z,5.78
2023-12-18T07:26:02.859Z,6.47
2023-12-18T07:28:33.032Z,5.80
2023-12-18T07:31:06.442Z,5.60
2023-12-18T07:33:37.329Z,5.00
2023-12-18T07:36:08.032Z,6.10
2023-12-18T07:38:37.678Z,5.90
2023-12-18T07:41:08.845Z,5.50
2023-12-18T07:43:38.757Z,6.62
2023-12-18T07:46:24.726Z,5.45
2023-12-18T07:48:55.120Z,5.17
2023-12-18T07:51:25.427Z,6.28
2023-12-18T07:53:57.497Z,5.83
2023-12-18T07:56:27.703Z,6.78
2023-12-18T07:58:57.872Z,6.47
2023-12-18T08:01:28.467Z,6.83
2023-12-18T08:04:00.897Z,5.30
2023-12-18T08:06:31.276Z,5.92
2023-12-18T08:09:42.164Z,6.53
2023-12-18T08:11:51.538Z,6.22
2023-12-18T08:14:21.672Z,6.22
2023-12-18T08:16:52.387Z,7.92
2023-12-18T08:19:25.754Z,6.33
2023-12-18T08:21:56.097Z,6.03
2023-12-18T08:24:26.624Z,4.00
2023-12-18T08:26:57.040Z,3.42
2023-12-18T08:29:27.230Z,1.85
2023-12-18T08:32:00.142Z,1.45
2023-12-18T08:34:30.630Z,1.33
2023-12-18T08:37:01.898Z,1.15
2023-12-18T08:39:32.010Z,0.90
2023-12-18T08:42:02.260Z,0.72
2023-12-18T08:44:34.591Z,0.82
2023-12-18T08:47:04.980Z,0.65
2023-12-18T08:49:35.250Z,0.60
2023-12-18T08:52:05.971Z,0.78
2023-12-18T08:54:36.251Z,0.55
2023-12-18T08:57:07.466Z,0.78
2023-12-18T08:59:37.372Z,0.80
2023-12-18T09:02:11.945Z,0.75
2023-12-18T09:04:42.217Z,0.60
2023-12-18T09:07:13.563Z,0.70
2023-12-18T09:09:45.076Z,0.78
2023-12-18T09:14:43.579Z,0.65
2023-12-18T09:17:13.731Z,0.60
2023-12-18T09:19:44.003Z,0.70
2023-12-18T09:22:14.391Z,1.00
2023-12-18T09:24:44.714Z,0.50
2023-12-18T09:27:15.882Z,0.57
2023-12-18T09:29:46.984Z,0.80
2023-12-18T09:32:16.984Z,1.10
2023-12-18T09:34:47.738Z,0.90
2023-12-18T09:37:17.640Z,0.87
2023-12-18T09:39:49.218Z,0.62
2023-12-18T09:42:20.829Z,1.62
2023-12-18T09:47:21.147Z,0.77
2023-12-18T09:49:51.356Z,0.80
2023-12-18T09:52:23.464Z,0.60
2023-12-18T09:54:54.047Z,1.25
2023-12-18T09:57:27.116Z,0.93
2023-12-18T09:59:57.505Z,0.65
2023-12-18T10:02:29.364Z,0.90
2023-12-18T10:04:59.999Z,0.57
2023-12-18T10:07:29.948Z,0.40
2023-12-18T10:10:03.011Z,0.68
2023-12-18T10:12:33.792Z,0.50
2023-12-18T10:15:04.851Z,0.45
2023-12-18T10:17:35.050Z,0.65
2023-12-18T10:20:06.956Z,0.78
2023-12-18T10:22:37.227Z,0.90
2023-12-18T10:25:07.533Z,0.70
2023-12-18T10:27:39.681Z,0.28
2023-12-18T10:30:11.058Z,0.90
2023-12-18T10:32:43.205Z,0.33
2023-12-18T10:35:14.145Z,0.85
2023-12-18T10:37:47.403Z,0.55
2023-12-18T10:40:23.529Z,0.47
2023-12-18T10:43:02.899Z,0.70
2023-12-18T10:45:35.012Z,0.62
2023-12-18T10:48:11.035Z,0.60
2023-12-18T10:50:41.957Z,1.25
2023-12-18T10:53:13.397Z,0.90
2023-12-18T10:55:43.943Z,1.20
2023-12-18T10:58:14.686Z,1.13
2023-12-18T11:00:46.413Z,0.72
2023-12-18T11:03:19.945Z,0.70
2023-12-18T11:05:53.694Z,1.45
2023-12-18T11:08:24.067Z,1.12
2023-12-18T11:10:58.085Z,0.80
2023-12-18T11:13:30.375Z,0.95
2023-12-18T11:16:10.696Z,1.05
2023-12-18T11:18:57.206Z,1.47
2023-12-18T11:21:29.744Z,0.95
2023-12-18T11:26:32.666Z,0.80
2023-12-18T11:29:26.080Z,1.35
2023-12-18T11:31:59.666Z,1.35
2023-12-18T11:34:29.914Z,1.27
2023-12-18T11:37:01.864Z,1.25
2023-12-18T11:42:12.940Z,1.10
2023-12-18T11:44:43.264Z,1.77
2023-12-18T11:47:13.572Z,0.80
2023-12-18T11:49:44.037Z,1.07
2023-12-18T11:52:22.294Z,1.40
2023-12-18T11:54:53.430Z,1.82
2023-12-18T11:57:23.665Z,0.80
2023-12-18T11:59:54.038Z,1.25
2023-12-18T12:02:27.951Z,1.12
2023-12-18T12:05:00.133Z,1.50
2023-12-18T12:07:30.287Z,0.70
2023-12-18T12:10:01.299Z,0.80
2023-12-18T12:12:33.332Z,0.78
2023-12-18T12:17:31.584Z,2.00
2023-12-18T12:20:01.971Z,1.50
2023-12-18T12:22:32.570Z,1.40
2023-12-18T12:25:02.952Z,0.68
2023-12-18T12:27:34.207Z,1.50
2023-12-18T12:30:05.326Z,1.35
2023-12-18T12:32:35.328Z,1.15
2023-12-18T12:35:06.622Z,1.57
2023-12-18T12:37:36.542Z,1.07
2023-12-18T12:40:07.698Z,0.80
2023-12-18T12:42:43.404Z,1.27
2023-12-18T12:45:13.771Z,1.40
2023-12-18T12:47:44.309Z,1.15
2023-12-18T12:50:16.616Z,0.98
2023-12-18T12:52:48.191Z,1.25
2023-12-18T12:55:18.171Z,1.27
2023-12-18T12:57:48.388Z,1.27
2023-12-18T13:00:22.262Z,1.02
2023-12-18T13:02:52.447Z,0.80
2023-12-18T13:05:23.737Z,0.70
2023-12-18T13:07:55.911Z,1.27
2023-12-18T13:10:30.169Z,1.00
2023-12-18T13:13:01.644Z,1.00
2023-12-18T13:15:33.553Z,1.95
2023-12-18T13:18:05.508Z,1.72
2023-12-18T13:20:36.636Z,1.50
2023-12-18T13:23:08.575Z,1.12
2023-12-18T13:25:38.747Z,1.55
2023-12-18T13:28:09.985Z,0.95
2023-12-18T13:30:42.016Z,0.80
2023-12-18T13:33:12.457Z,1.62
2023-12-18T13:35:42.901Z,0.80
2023-12-18T13:38:14.834Z,0.50
2023-12-18T13:40:45.126Z,0.80
2023-12-18T13:43:17.391Z,1.15
2023-12-18T13:45:48.611Z,0.82
2023-12-18T13:48:18.816Z,1.17
2023-12-18T13:50:50.181Z,0.85
2023-12-18T13:53:20.160Z,1.12
2023-12-18T13:55:50.298Z,1.12
2023-12-18T13:58:21.673Z,0.70
2023-12-18T14:00:51.727Z,1.12
2023-12-18T14:03:22.510Z,0.75
2023-12-18T14:05:52.933Z,0.82
2023-12-18T14:08:23.113Z,0.80
2023-12-18T14:10:55.807Z,0.60
2023-12-18T14:13:26.463Z,1.05
2023-12-18T14:15:58.591Z,0.80
2023-12-18T14:18:28.883Z,1.65
2023-12-18T14:20:59.142Z,0.95
2023-12-18T14:23:29.383Z,0.90
2023-12-18T14:26:02.045Z,0.95
2023-12-18T14:28:33.168Z,1.00
2023-12-18T14:31:03.218Z,0.90
2023-12-18T14:33:33.671Z,0.98
2023-12-18T14:36:04.232Z,1.10
2023-12-18T14:38:36.236Z,1.05
2023-12-18T14:41:08.481Z,0.62
2023-12-18T14:43:39.212Z,0.98
2023-12-18T14:46:10.963Z,1.22
2023-12-18T14:48:41.660Z,1.30
2023-12-18T14:51:12.054Z,1.32
2023-12-18T14:53:42.206Z,1.17
2023-12-18T14:56:12.572Z,1.35
2023-12-18T14:58:42.800Z,0.60
2023-12-18T15:01:13.104Z,0.93
2023-12-18T15:03:43.362Z,0.57
2023-12-18T15:06:13.722Z,1.30
2023-12-18T15:08:43.925Z,0.90
2023-12-18T15:11:14.176Z,1.20
2023-12-18T15:13:45.285Z,0.80
2023-12-18T15:16:15.219Z,1.40
2023-12-18T15:18:45.624Z,1.42
2023-12-18T15:21:16.863Z,2.27
2023-12-18T15:23:46.950Z,1.42
2023-12-18T15:26:20.144Z,1.75
2023-12-18T15:28:50.509Z,1.50
2023-12-18T15:31:20.846Z,2.33
2023-12-18T15:33:51.316Z,1.72
2023-12-18T15:36:23.659Z,2.15
2023-12-18T15:38:53.839Z,2.65
2023-12-18T15:41:24.072Z,2.80
2023-12-18T15:43:54.726Z,2.50
2023-12-18T15:46:25.002Z,2.90
2023-12-18T15:48:56.715Z,3.72
2023-12-18T15:53:55.869Z,2.87
2023-12-18T15:56:26.098Z,3.33
2023-12-18T15:58:56.361Z,3.47
2023-12-18T16:01:27.007Z,3.12
2023-12-18T16:03:58.608Z,2.30
2023-12-18T16:06:28.841Z,2.75
2023-12-18T16:08:59.061Z,2.08
2023-12-18T16:11:29.274Z,1.92
2023-12-18T16:14:00.386Z,2.40
2023-12-18T16:16:30.268Z,1.87
2023-12-18T16:19:00.909Z,2.33
2023-12-18T16:21:31.771Z,2.35
2023-12-18T16:24:01.425Z,2.23
2023-12-18T16:26:33.274Z,2.20
2023-12-18T16:31:36.391Z,3.67
2023-12-18T16:34:08.363Z,4.62
2023-12-18T16:36:38.876Z,3.85
2023-12-18T16:39:09.078Z,4.22
2023-12-18T16:41:42.995Z,3.40
2023-12-18T16:44:13.295Z,3.70
2023-12-18T16:46:45.618Z,5.00
2023-12-18T16:51:45.171Z,3.50
2023-12-18T16:54:15.196Z,3.95
2023-12-18T16:56:45.466Z,4.87
2023-12-18T16:59:18.313Z,5.22
2023-12-18T17:01:49.823Z,3.85
2023-12-18T17:04:22.335Z,4.50
2023-12-18T17:06:52.900Z,4.00
2023-12-18T17:09:23.251Z,5.33
2023-12-18T17:11:55.443Z,5.83
2023-12-18T17:14:25.645Z,6.00
2023-12-18T17:16:56.369Z,6.50
2023-12-18T17:19:27.595Z,5.67
2023-12-18T17:21:57.583Z,5.00
2023-12-18T17:24:27.832Z,4.80
2023-12-18T17:26:58.062Z,5.45
2023-12-18T17:29:28.391Z,4.85
2023-12-18T17:31:59.342Z,3.90
2023-12-18T17:34:28.954Z,4.87
2023-12-18T17:37:00.327Z,5.17
2023-12-18T17:39:30.315Z,5.67
2023-12-18T17:42:00.560Z,4.30
2023-12-18T17:44:30.754Z,4.78
2023-12-18T17:47:01.286Z,4.87
2023-12-18T17:49:31.715Z,4.28
2023-12-18T17:52:03.194Z,4.35
2023-12-18T17:54:33.144Z,5.50
2023-12-18T17:57:04.895Z,5.00
2023-12-18T18:02:04.583Z,4.85
2023-12-18T18:04:34.829Z,5.30
2023-12-18T18:07:06.085Z,5.80
2023-12-18T18:09:36.051Z,5.90
2023-12-18T18:12:06.886Z,5.45
2023-12-18T18:14:37.050Z,6.62
2023-12-18T18:17:07.326Z,6.33
2023-12-18T18:19:37.656Z,6.20
2023-12-18T18:22:08.921Z,5.42
2023-12-18T18:24:39.106Z,5.87
2023-12-18T18:27:11.208Z,6.62
2023-12-18T18:32:11.982Z,5.65
2023-12-18T18:34:43.320Z,5.62
2023-12-18T18:37:13.627Z,7.33
2023-12-18T18:39:45.127Z,6.80
2023-12-18T18:42:15.393Z,6.85
2023-12-18T18:44:45.622Z,5.70
2023-12-18T18:47:15.894Z,7.20
2023-12-18T18:49:47.361Z,7.95
2023-12-18T18:52:18.229Z,21.93
2023-12-18T18:54:48.221Z,9.15
2023-12-18T18:59:48.217Z,8.68
2023-12-18T19:02:18.624Z,11.75
2023-12-18T19:04:49.058Z,12.00
2023-12-18T19:07:19.365Z,9.35
2023-12-18T19:09:49.668Z,9.25
2023-12-18T19:12:19.975Z,7.90
2023-12-18T19:14:51.799Z,8.25
2023-12-18T19:17:21.412Z,8.38
2023-12-18T19:19:51.651Z,8.03
2023-12-18T19:22:22.554Z,8.93
2023-12-18T19:24:52.952Z,9.90
2023-12-18T19:27:23.356Z,9.40
2023-12-18T19:29:54.586Z,9.65
2023-12-18T19:32:24.487Z,8.10
2023-12-18T19:34:54.705Z,7.53
2023-12-18T19:37:25.518Z,8.30
2023-12-18T19:39:56.206Z,8.58
2023-12-18T19:42:30.375Z,7.60
2023-12-18T19:45:02.332Z,11.22
2023-12-18T19:47:32.732Z,10.30
2023-12-18T19:50:03.386Z,8.60
2023-12-18T19:52:33.773Z,9.58
2023-12-18T19:55:04.577Z,10.23
2023-12-18T19:57:36.444Z,9.30
2023-12-18T20:02:37.237Z,9.80
2023-12-18T20:05:08.767Z,11.03
2023-12-18T20:07:38.909Z,10.13
2023-12-18T20:10:11.985Z,9.95
2023-12-18T20:12:42.457Z,10.13
2023-12-18T20:15:12.918Z,11.53
2023-12-18T20:17:44.061Z,9.18
2023-12-18T20:20:14.122Z,10.15
2023-12-18T20:22:45.354Z,12.65
2023-12-18T20:25:17.080Z,10.98
2023-12-18T20:30:15.772Z,12.50
2023-12-18T20:32:46.473Z,10.58
2023-12-18T20:35:16.845Z,13.03
2023-12-18T20:37:47.071Z,11.55
2023-12-18T20:40:17.353Z,11.88
2023-12-18T20:42:50.452Z,12.10
2023-12-18T20:45:20.779Z,11.95
2023-12-18T20:47:51.678Z,12.75
2023-12-18T20:50:22.052Z,12.93
2023-12-18T20:52:52.504Z,12.98
2023-12-18T20:55:22.812Z,14.05
2023-12-18T20:57:53.173Z,12.45
2023-12-18T21:00:25.688Z,12.73
2023-12-18T21:02:57.731Z,12.25
2023-12-18T21:05:28.467Z,12.60
2023-12-18T21:07:58.907Z,12.15
2023-12-18T21:10:31.178Z,12.03
2023-12-18T21:13:04.090Z,13.70
2023-12-18T21:15:34.505Z,15.48
2023-12-18T21:18:05.024Z,11.85
2023-12-18T21:20:36.240Z,12.78
2023-12-18T21:23:07.967Z,13.25
2023-12-18T21:25:38.428Z,13.30
2023-12-18T21:28:09.492Z,14.43
2023-12-18T21:30:39.753Z,14.87
2023-12-18T21:33:11.678Z,14.65
2023-12-18T21:35:42.106Z,13.55
2023-12-18T21:38:12.287Z,14.33
2023-12-18T21:40:42.622Z,13.55
2023-12-18T21:43:12.829Z,14.25
2023-12-18T21:45:43.218Z,15.05
2023-12-18T21:48:13.464Z,15.00
2023-12-18T21:50:45.808Z,12.25
2023-12-18T21:53:17.641Z,14.35
2023-12-18T21:58:17.835Z,14.03
2023-12-18T22:00:48.063Z,15.15
2023-12-18T22:03:22.936Z,14.65
2023-12-18T22:05:54.396Z,14.70
2023-12-18T22:08:24.485Z,14.13
2023-12-18T22:10:56.629Z,15.03
2023-12-18T22:13:26.976Z,15.63
2023-12-18T22:15:57.282Z,14.93
2023-12-18T22:18:29.947Z,15.28
2023-12-18T22:21:08.076Z,15.83
2023-12-18T22:23:35.271Z,15.95
2023-12-18T22:26:05.746Z,14.73
2023-12-18T22:28:36.150Z,15.85
2023-12-18T22:31:06.820Z,15.35
2023-12-18T22:33:37.245Z,17.07
2023-12-18T22:36:09.398Z,15.85
2023-12-18T22:38:40.149Z,15.98
2023-12-18T22:41:11.000Z,14.18
2023-12-18T22:43:40.630Z,14.53
2023-12-18T22:46:10.850Z,15.43
2023-12-18T22:48:41.195Z,14.45
2023-12-18T22:51:12.523Z,14.63
2023-12-18T22:53:43.436Z,17.32
2023-12-18T22:56:13.544Z,17.15
2023-12-18T22:58:43.818Z,16.37
2023-12-18T23:01:14.494Z,34.58
2023-12-18T23:03:44.979Z,29.12
2023-12-18T23:06:15.220Z,19.95
2023-12-18T23:08:46.102Z,20.10
2023-12-18T23:11:15.869Z,15.70
2023-12-18T23:13:46.355Z,15.70
2023-12-18T23:16:18.186Z,13.22
2023-12-18T23:18:48.935Z,14.18
2023-12-18T23:21:21.393Z,12.88
2023-12-18T23:23:53.549Z,13.30
2023-12-18T23:26:25.448Z,11.68
2023-12-18T23:31:24.042Z,13.35
2023-12-18T23:33:55.038Z,12.88
2023-12-18T23:36:25.283Z,12.20
2023-12-18T23:38:56.518Z,13.38
2023-12-18T23:41:26.463Z,13.72
2023-12-18T23:43:56.663Z,14.55
2023-12-18T23:46:26.898Z,12.15
2023-12-18T23:48:58.314Z,13.60
2023-12-18T23:51:28.260Z,14.33
2023-12-18T23:53:59.404Z,12.10
2023-12-18T23:56:30.668Z,15.28
2023-12-18T23:59:00.623Z,13.28
